Flughafen Saarbrücken

Aus VATSIM Germany
Version vom 15. Mai 2020, 14:15 Uhr von VATSIM Germany (Diskussion | Beiträge) (Die Seite wurde neu angelegt: „{{Baustelle}} {{Flughafen |ICAO=EDDR }} Kategorie:RG Frankfurt“)

(Unterschied) ← Nächstältere Version | Bestätigte Version (Unterschied) | Aktuelle Version (Unterschied) | Nächstjüngere Version → (Unterschied)
Wechseln zu:Navigation, Suche
UnderCon icon.svg.pngDieser Artikel ist noch im Aufbau. Der Artikel kann daher unvollständig sein oder Fehler enthalten!


Saarbrucken Airport
ICAO / IATA EDDR / SCN
Koordinaten N49°12′53″  E007°6′34″
Höhe 322 m / 1058 ft
Wetter EDDR 190450Z 22010KT 2500 -RA BR SCT005 BKN012 BKN030 10/09 Q1023 RERA BECMG 3500 BKN005
Pisten
Platzfrequenzen
Nur für Flugsimulationszwecke!



Informationen für Piloten und Lotsen
Pilotenbriefing

Standard Operating Procedures (SOP)

Letters of Agreement (LoAs)

Airport Charts